KC9QFH Weather Reports


Display with metric or nautical units.
time (UTC)temp
F
wind
direction
speed
MPH
gust
MPH
rain 1hr
in
rain 24hr
in
rain mn
in
humidity
%
barometer
mb
20260503173118 64 250 15.0 29.0 0.00 0.00 0.00 51 1005.8
20260503171555 62 229 21.0 30.0 0.00 0.00 0.00 52 1005.9
20260503150104 59 257 17.0 31.0 0.00 0.00 0.00 54 1007.0
20260503120119 51 216 11.0 15.0 0.00 0.00 0.00 58 1008.0
20260503100104 51 223 9.0 14.0 0.00 0.00 0.00 52 1009.0
20260503081557 52 242 9.0 19.0 0.00 0.00 0.00 50 1009.5
20260503071600 52 226 4.0 9.0 0.00 0.00 0.00 55 1010.1
20260503070108 52 257 7.0 13.0 0.00 0.00 0.00 55 1010.4
20260503054604 47 235 5.0 7.0 0.00 0.00 0.00 70 1010.8
20260503053057 45 0 0.0 2.0 0.00 0.00 0.00 73 1011.0
20260503051605 44 239 1.0 2.0 0.00 0.00 0.00 75 1011.3
20260503050059 43 203 3.0 5.0 0.00 0.00 0.00 74 1011.3
20260503044603 42 198 2.0 5.0 0.00 0.00 0.00 73 1011.3
20260503043059 42 212 2.0 4.0 0.00 0.00 0.00 72 1011.5
20260503041607 42 181 3.0 5.0 0.00 0.00 0.00 71 1011.7
20260503034611 43 205 3.0 6.0 0.00 0.00 0.00 70 1011.9
20260503033101 43 210 4.0 8.0 0.00 0.00 0.00 70 1012.1
20260503031558 43 198 4.0 7.0 0.00 0.00 0.00 69 1012.3
20260503030059 44 155 4.0 7.0 0.00 0.00 0.00 68 1012.5
20260503024558 44 203 6.0 9.0 0.00 0.00 0.00 66 1012.6
20260503023101 44 198 6.0 9.0 0.00 0.00 0.00 65 1012.6
20260503021600 45 195 4.0 7.0 0.00 0.00 0.00 64 1012.7
20260503020104 46 142 5.0 12.0 0.00 0.00 0.00 62 1012.8
20260503014619 46 187 7.0 12.0 0.00 0.00 0.00 60 1012.6
20260503013056 47 225 9.0 14.0 0.00 0.00 0.00 59 1012.6
20260503011557 47 179 9.0 16.0 0.00 0.00 0.00 58 1012.7
20260503010057 48 146 10.0 15.0 0.00 0.00 0.00 57 1012.8
20260503004556 50 158 10.0 15.0 0.00 0.00 0.00 57 1012.7
20260503003106 51 145 11.0 17.0 0.00 0.00 0.00 55 1012.7
20260503001556 53 165 11.0 17.0 0.00 0.00 0.00 52 1012.8
20260503000056 56 179 7.0 11.0 0.00 0.00 0.00 39 1012.8
20260502234557 57 215 5.0 10.0 0.00 0.00 0.00 40 1012.9
20260502233102 56 199 8.0 11.0 0.00 0.00 0.00 38 1013.0
20260502231606 56 229 9.0 13.0 0.00 0.00 0.00 38 1013.1
20260502230058 56 199 7.0 13.0 0.00 0.00 0.00 40 1013.1
20260502224558 56 212 8.0 15.0 0.00 0.00 0.00 38 1013.2
20260502223058 57 224 8.0 12.0 0.00 0.00 0.00 37 1013.5
20260502221559 58 266 7.0 14.0 0.00 0.00 0.00 37 1013.7
20260502214559 57 250 8.0 14.0 0.00 0.00 0.00 38 1013.8
20260502213057 57 201 9.0 16.0 0.00 0.00 0.00 37 1013.9
20260502211556 58 205 9.0 15.0 0.00 0.00 0.00 37 1014.2
20260502210106 57 217 6.0 14.0 0.00 0.00 0.00 37 1014.3
20260502204555 56 244 12.0 16.0 0.00 0.00 0.00 39 1014.5
20260502203058 57 245 10.0 15.0 0.00 0.00 0.00 38 1014.8
20260502201603 57 237 4.0 11.0 0.00 0.00 0.00 36 1015.0
20260502200117 55 226 8.0 14.0 0.00 0.00 0.00 39 1015.1
20260502194619 57 212 3.0 15.0 0.00 0.00 0.00 40 1015.4
20260502193100 56 217 11.0 16.0 0.00 0.00 0.00 37 1015.6
20260502191600 55 236 11.0 18.0 0.00 0.00 0.00 39 1015.7
20260502190107 56 224 5.0 16.0 0.00 0.00 0.00 35 1016.0
20260502184601 56 255 2.0 9.0 0.00 0.00 0.00 39 1016.2
20260502183103 54 243 6.0 11.0 0.00 0.00 0.00 37 1016.5
20260502181559 56 239 4.0 9.0 0.00 0.00 0.00 37 1016.6
20260502180122 56 249 6.0 12.0 0.00 0.00 0.00 34 1016.6